Time;durP1;ratioP1;P1;durP2;ratioP2;P2;SDS_P1;SDS_P2;PMS_P1;PMS_P2;Temp;Humidity;BMP_temperature;BMP_pressure;BME280_temperature;BME280_humidity;BME280_pressure;Samples;Min_cycle;Max_cycle;Signal;HPM_P1;HPM_P2
2023/02/17 00:02:08;;;;;;;23.70;7.18;;;;;;;6.86;61.17;97137.00;5049070;28;20048;-72
2023/02/17 00:04:35;;;;;;;33.22;7.22;;;;;;;6.84;61.17;97121.03;5049194;28;20041;-71
2023/02/17 00:07:03;;;;;;;35.75;7.35;;;;;;;6.85;61.52;97128.06;5049338;28;20552;-71
2023/02/17 00:09:29;;;;;;;26.77;6.95;;;;;;;6.82;61.21;97123.19;5049100;28;20044;-72
2023/02/17 00:11:55;;;;;;;36.03;7.40;;;;;;;6.80;62.44;97120.78;5049996;28;20045;-71
2023/02/17 00:14:22;;;;;;;27.13;6.65;;;;;;;6.80;62.27;97125.38;5048951;28;20057;-72
2023/02/17 00:16:48;;;;;;;25.40;6.72;;;;;;;6.77;62.17;97123.22;5049330;28;20052;-72
2023/02/17 00:19:24;;;;;;;25.25;6.85;;;;;;;6.74;62.51;97126.47;5049365;28;20492;-72
2023/02/17 00:21:51;;;;;;;33.03;7.75;;;;;;;6.65;62.79;97117.28;5049065;28;20496;-72
2023/02/17 00:24:20;;;;;;;36.35;7.32;;;;;;;6.65;63.10;97128.13;5050503;28;20041;-71
2023/02/17 00:26:46;;;;;;;28.08;7.07;;;;;;;6.57;63.37;97115.13;5051306;28;20429;-72
2023/02/17 00:29:13;;;;;;;34.97;7.47;;;;;;;6.45;63.49;97116.22;5051437;28;20048;-72
2023/02/17 00:31:40;;;;;;;28.55;6.70;;;;;;;6.50;63.42;97118.13;5051778;28;20047;-72
2023/02/17 00:34:06;;;;;;;29.38;7.60;;;;;;;6.39;64.25;97109.22;5050934;28;20045;-72
2023/02/17 00:36:33;;;;;;;30.05;7.35;;;;;;;6.47;64.36;97108.66;5052566;28;20045;-71
2023/02/17 00:38:59;;;;;;;30.95;7.20;;;;;;;6.45;64.52;97108.13;5052868;28;20053;-71
2023/02/17 00:41:28;;;;;;;23.10;6.45;;;;;;;6.49;64.59;97113.81;5052357;28;20052;-72
2023/02/17 00:43:55;;;;;;;32.63;7.57;;;;;;;6.49;64.50;97117.31;5053159;28;20060;-72
2023/02/17 00:46:22;;;;;;;24.20;5.85;;;;;;;6.52;64.37;97108.66;5052057;28;20059;-72
2023/02/17 00:48:49;;;;;;;21.02;6.18;;;;;;;6.54;64.35;97111.09;5052758;28;20045;-72
2023/02/17 00:51:17;;;;;;;28.70;6.97;;;;;;;6.52;64.19;97114.06;5051789;28;20045;-72
2023/02/17 00:53:44;;;;;;;23.15;6.25;;;;;;;6.61;63.96;97113.50;5052528;28;20412;-72
2023/02/17 00:56:11;;;;;;;28.50;6.32;;;;;;;6.61;63.88;97111.59;5051775;28;20413;-72
2023/02/17 00:58:40;;;;;;;31.88;7.13;;;;;;;6.61;63.97;97110.78;5052459;28;20049;-72
2023/02/17 01:01:06;;;;;;;22.33;6.35;;;;;;;6.60;64.67;97118.09;5051987;28;20045;-72
2023/02/17 01:03:33;;;;;;;27.45;6.20;;;;;;;6.56;64.13;97119.72;5051994;28;20052;-72
2023/02/17 01:06:05;;;;;;;28.67;6.20;;;;;;;6.58;62.43;97117.59;5051754;28;20049;-71
2023/02/17 01:08:32;;;;;;;24.42;5.97;;;;;;;6.60;62.22;97120.00;5052228;28;20045;-72
2023/02/17 01:10:59;;;;;;;16.60;5.10;;;;;;;6.65;60.76;97118.09;5051958;28;20515;-72
2023/02/17 01:13:25;;;;;;;27.95;6.63;;;;;;;6.68;61.49;97114.84;5051348;28;20492;-71
2023/02/17 01:15:54;;;;;;;25.73;6.47;;;;;;;6.74;62.09;97115.66;5051711;28;20041;-72
2023/02/17 01:18:23;;;;;;;25.25;6.80;;;;;;;6.78;62.63;97109.38;5051443;28;20045;-72
2023/02/17 01:20:49;;;;;;;17.48;5.47;;;;;;;6.59;60.43;97107.56;5052157;28;20057;-72
2023/02/17 01:23:16;;;;;;;29.52;6.35;;;;;;;6.62;59.91;97113.22;5051063;28;20497;-72
2023/02/17 01:25:44;;;;;;;21.98;6.45;;;;;;;6.75;60.01;97106.44;5051846;28;20049;-72
2023/02/17 01:28:15;;;;;;;24.58;6.50;;;;;;;6.96;60.34;97107.19;5051433;28;20067;-72
2023/02/17 01:30:41;;;;;;;21.00;5.35;;;;;;;7.04;60.31;97104.69;5051830;28;20048;-72
2023/02/17 01:33:09;;;;;;;26.48;6.70;;;;;;;7.00;59.15;97100.94;5051031;28;20049;-73
2023/02/17 01:35:36;;;;;;;25.23;5.95;;;;;;;7.10;59.17;97101.97;5050398;28;20056;-72
2023/02/17 01:38:02;;;;;;;33.03;6.30;;;;;;;7.01;57.89;97099.06;5051443;28;20049;-72
2023/02/17 01:40:29;;;;;;;33.15;5.82;;;;;;;6.95;58.74;97095.56;5051768;28;20052;-72
2023/02/17 01:42:55;;;;;;;21.95;5.32;;;;;;;6.98;57.65;97097.69;5051449;28;20041;-72
2023/02/17 01:45:34;;;;;;;29.75;6.07;;;;;;;7.01;57.50;97099.06;5051052;28;20060;-72
2023/02/17 01:48:06;;;;;;;22.70;5.07;;;;;;;7.02;57.23;97089.84;5051646;28;20049;-71
2023/02/17 01:50:43;;;;;;;29.35;6.13;;;;;;;7.00;57.11;97095.53;5051222;28;20065;-72
2023/02/17 01:53:12;;;;;;;28.23;6.03;;;;;;;6.99;57.40;97091.19;5050850;28;20095;-72
2023/02/17 01:55:40;;;;;;;28.45;6.05;;;;;;;6.97;57.29;97092.56;5051588;28;20044;-72
2023/02/17 01:58:10;;;;;;;29.63;6.00;;;;;;;6.93;57.46;97086.88;5050986;28;20049;-73
2023/02/17 02:00:37;;;;;;;34.85;6.10;;;;;;;6.92;57.51;97085.25;5050961;28;20068;-72
2023/02/17 02:03:08;;;;;;;26.20;5.60;;;;;;;6.92;57.49;97085.25;5050514;28;20059;-73
2023/02/17 02:05:38;;;;;;;29.60;6.28;;;;;;;6.92;57.41;97085.25;5051266;28;20049;-72
2023/02/17 02:08:05;;;;;;;36.58;5.85;;;;;;;6.95;56.90;97078.50;5050882;28;20083;-73
2023/02/17 02:10:31;;;;;;;38.40;6.38;;;;;;;7.01;56.96;97089.03;5050762;28;20437;-72
2023/02/17 02:12:58;;;;;;;18.55;5.75;;;;;;;7.06;56.35;97085.50;5051360;28;20045;-72
2023/02/17 02:15:29;;;;;;;13.95;5.07;;;;;;;7.13;56.32;97085.19;5052510;28;20045;-72
2023/02/17 02:18:08;;;;;;;15.13;5.28;;;;;;;7.15;56.27;97083.84;5052974;28;20049;-71
2023/02/17 02:21:07;;;;;;;17.27;5.18;;;;;;;7.18;56.18;97077.03;5052681;28;20040;-73
2023/02/17 02:23:54;;;;;;;21.77;5.80;;;;;;;7.30;56.57;97080.22;5052542;28;20488;-73
2023/02/17 02:27:13;;;;;;;18.88;6.05;;;;;;;7.20;56.77;97080.25;5052095;28;20409;-72
2023/02/17 02:30:15;;;;;;;18.35;5.47;;;;;;;7.19;57.23;97078.66;5052324;28;20535;-71
2023/02/17 02:32:59;;;;;;;31.73;6.72;;;;;;;7.17;57.34;97086.25;5060130;28;20037;-72
2023/02/17 02:35:34;;;;;;;33.78;7.25;;;;;;;7.10;58.10;97081.16;5051014;28;20080;-72
2023/02/17 02:38:04;;;;;;;32.45;7.63;;;;;;;7.08;58.17;97088.72;5056451;28;20044;-72
2023/02/17 02:40:36;;;;;;;40.67;7.85;;;;;;;7.12;58.68;97078.16;5055202;28;20055;-72
2023/02/17 02:43:04;;;;;;;28.00;7.05;;;;;;;7.26;58.39;97068.34;5056169;28;20057;-73
2023/02/17 02:45:31;;;;;;;23.38;6.68;;;;;;;7.12;58.38;97068.13;5057977;28;20044;-71
2023/02/17 02:47:59;;;;;;;31.63;7.15;;;;;;;7.20;58.09;97062.13;5057001;28;20060;-72
2023/02/17 02:50:40;;;;;;;30.92;7.28;;;;;;;7.24;57.43;97059.66;5056410;28;20044;-71
2023/02/17 02:53:23;;;;;;;34.13;7.38;;;;;;;7.26;57.63;97065.63;5056668;28;20048;-72
2023/02/17 02:55:55;;;;;;;22.55;6.95;;;;;;;7.33;57.36;97058.00;5051818;28;20041;-72
2023/02/17 02:58:28;;;;;;;29.83;6.90;;;;;;;7.37;57.02;97048.22;5050696;28;20511;-71
2023/02/17 03:01:02;;;;;;;30.02;7.85;;;;;;;7.45;56.55;97044.91;5050809;28;20049;-71
2023/02/17 03:03:41;;;;;;;33.95;7.75;;;;;;;7.48;56.70;97047.06;5049596;28;20041;-72
2023/02/17 03:06:16;;;;;;;28.95;7.40;;;;;;;7.50;56.99;97050.28;5049950;28;20072;-73
2023/02/17 03:08:48;;;;;;;28.63;7.45;;;;;;;7.59;56.95;97039.69;5050373;28;20060;-72
2023/02/17 03:11:30;;;;;;;36.75;8.13;;;;;;;7.62;57.41;97044.53;5049101;28;20515;-72
2023/02/17 03:14:00;;;;;;;27.52;7.32;;;;;;;7.65;57.02;97045.88;5050568;28;20059;-72
2023/02/17 03:16:27;;;;;;;27.60;7.72;;;;;;;7.71;56.37;97042.03;5050839;28;20047;-72
2023/02/17 03:18:55;;;;;;;20.58;6.65;;;;;;;7.74;56.73;97041.47;5050273;28;20045;-72
2023/02/17 03:21:21;;;;;;;25.92;7.20;;;;;;;7.74;56.82;97036.06;5049084;28;20056;-72
2023/02/17 03:23:48;;;;;;;29.27;7.05;;;;;;;7.78;55.67;97037.13;5049656;28;20451;-72
2023/02/17 03:26:14;;;;;;;25.48;7.35;;;;;;;7.83;55.36;97031.66;5049436;28;20053;-72
2023/02/17 03:28:41;;;;;;;21.98;6.38;;;;;;;7.89;55.46;97029.69;5049733;28;20049;-71
2023/02/17 03:31:07;;;;;;;28.35;7.75;;;;;;;7.95;55.48;97026.66;5048515;28;20053;-73
2023/02/17 03:33:34;;;;;;;21.08;6.65;;;;;;;7.94;55.40;97030.47;5049117;28;20057;-73
2023/02/17 03:36:01;;;;;;;19.65;6.22;;;;;;;8.01;55.33;97019.28;5049813;28;20045;-73
2023/02/17 03:38:28;;;;;;;25.27;6.97;;;;;;;7.98;55.06;97015.22;5049178;28;20053;-73
2023/02/17 03:40:54;;;;;;;19.42;5.72;;;;;;;8.02;55.15;97021.69;5049335;28;20045;-73
2023/02/17 03:43:21;;;;;;;18.00;5.63;;;;;;;8.04;55.33;97024.97;5048880;28;20045;-73
2023/02/17 03:45:47;;;;;;;25.23;6.88;;;;;;;8.01;55.12;97020.09;5049624;28;20428;-73
2023/02/17 03:48:14;;;;;;;21.48;6.40;;;;;;;8.00;54.97;97028.50;5048874;28;20049;-71
2023/02/17 03:50:40;;;;;;;14.02;5.40;;;;;;;7.99;55.04;97032.34;5049511;28;20103;-73
2023/02/17 03:53:08;;;;;;;25.75;6.72;;;;;;;7.93;55.11;97028.81;5048856;28;20049;-74
2023/02/17 03:55:35;;;;;;;16.75;5.47;;;;;;;8.00;54.97;97032.03;5049768;28;20040;-72
2023/02/17 03:58:01;;;;;;;20.95;5.70;;;;;;;8.02;54.71;97032.53;5049949;28;20045;-73
2023/02/17 04:00:28;;;;;;;22.40;6.07;;;;;;;7.96;54.72;97028.25;5053342;28;20037;-73
2023/02/17 04:02:55;;;;;;;18.60;5.38;;;;;;;7.97;54.75;97029.88;5052741;28;20052;-73
2023/02/17 04:05:22;;;;;;;21.95;6.05;;;;;;;7.97;54.74;97032.59;5052914;28;20048;-73
2023/02/17 04:07:49;;;;;;;22.30;6.35;;;;;;;8.00;54.67;97029.31;5053550;28;20424;-72
2023/02/17 04:10:17;;;;;;;22.10;5.70;;;;;;;8.11;54.28;97030.03;5052976;28;20114;-71
2023/02/17 04:12:43;;;;;;;30.73;6.80;;;;;;;8.09;54.64;97033.03;5052904;28;20049;-72
2023/02/17 04:15:10;;;;;;;21.85;6.45;;;;;;;8.08;54.50;97036.81;5052735;28;20103;-71
2023/02/17 04:17:37;;;;;;;19.48;5.63;;;;;;;8.21;54.16;97023.72;5053446;28;20095;-72
2023/02/17 04:20:05;;;;;;;26.45;5.80;;;;;;;8.13;54.09;97010.75;5052624;28;20049;-73
2023/02/17 04:22:31;;;;;;;25.77;5.97;;;;;;;8.08;54.53;97008.91;5052713;28;20103;-73
2023/02/17 04:24:58;;;;;;;22.25;5.35;;;;;;;8.06;54.52;97003.75;5053272;28;20052;-72
2023/02/17 04:27:26;;;;;;;20.85;5.65;;;;;;;8.09;54.19;97013.22;5052647;28;20408;-73
2023/02/17 04:29:53;;;;;;;33.03;5.95;;;;;;;8.21;53.72;97007.44;5053011;28;20048;-73
2023/02/17 04:32:19;;;;;;;27.10;5.75;;;;;;;8.21;54.01;97012.88;5052034;28;20053;-73
2023/02/17 04:34:46;;;;;;;27.33;6.25;;;;;;;8.23;53.99;97016.09;5052589;28;20049;-73
2023/02/17 04:37:12;;;;;;;28.05;6.13;;;;;;;8.26;54.26;97010.91;5052472;28;20052;-73
2023/02/17 04:39:39;;;;;;;25.00;5.38;;;;;;;8.27;54.03;97015.22;5052997;28;20053;-73
2023/02/17 04:42:05;;;;;;;21.48;4.93;;;;;;;8.30;54.16;97013.84;5052264;28;20049;-72
2023/02/17 04:44:33;;;;;;;38.30;6.35;;;;;;;8.30;53.78;97016.53;5051885;28;20052;-72
2023/02/17 04:47:00;;;;;;;31.73;5.82;;;;;;;8.32;53.77;97008.94;5051476;28;20045;-72
2023/02/17 04:49:26;;;;;;;36.38;5.70;;;;;;;8.33;53.59;97002.41;5051415;28;20049;-71
2023/02/17 04:51:53;;;;;;;30.42;5.70;;;;;;;8.36;53.86;97004.59;5052224;28;20053;-71
2023/02/17 04:54:21;;;;;;;24.40;4.90;;;;;;;8.36;53.80;97008.13;5051211;28;20390;-72
2023/02/17 04:56:48;;;;;;;17.65;4.40;;;;;;;8.47;53.25;97002.59;5052638;28;20037;-72
2023/02/17 04:59:14;;;;;;;31.73;5.40;;;;;;;8.42;53.33;97000.72;5051883;28;20045;-72
2023/02/17 05:01:42;;;;;;;22.85;4.43;;;;;;;8.45;53.36;97002.84;5052196;28;20044;-72
2023/02/17 05:04:08;;;;;;;24.85;5.40;;;;;;;8.42;53.34;97005.34;5051595;28;20048;-71
2023/02/17 05:06:35;;;;;;;28.20;5.60;;;;;;;8.39;53.15;97004.00;5052269;28;20119;-72
2023/02/17 05:09:01;;;;;;;29.25;5.32;;;;;;;8.42;53.53;97002.63;5052129;28;20049;-72
2023/02/17 05:11:28;;;;;;;22.75;4.45;;;;;;;8.49;53.08;97001.19;5051824;28;20523;-72
2023/02/17 05:13:54;;;;;;;27.30;5.22;;;;;;;8.48;52.55;96996.84;5052148;28;20404;-72
2023/02/17 05:16:21;;;;;;;28.45;5.93;;;;;;;8.47;52.64;97000.69;5050940;28;20064;-71
2023/02/17 05:18:49;;;;;;;26.02;5.63;;;;;;;8.49;52.46;96990.31;5054277;28;20041;-72
2023/02/17 05:21:15;;;;;;;29.10;5.47;;;;;;;8.54;51.90;96998.41;5052310;28;20045;-72
2023/02/17 05:23:41;;;;;;;23.73;4.80;;;;;;;8.56;52.02;96988.09;5054244;28;20524;-72
2023/02/17 05:26:09;;;;;;;21.70;4.45;;;;;;;8.63;51.77;96985.81;5053787;28;20041;-71
2023/02/17 05:28:36;;;;;;;23.80;4.70;;;;;;;8.57;51.80;96989.69;5054002;28;20073;-71
2023/02/17 05:31:03;;;;;;;22.67;4.88;;;;;;;8.52;51.93;96995.19;5052149;28;20041;-72
2023/02/17 05:33:29;;;;;;;18.83;4.18;;;;;;;8.58;51.57;96996.75;5053571;28;20045;-72
2023/02/17 05:36:02;;;;;;;26.92;4.95;;;;;;;8.56;51.85;97000.81;5051924;28;20056;-72
2023/02/17 05:38:28;;;;;;;20.88;4.13;;;;;;;8.60;51.62;97005.41;5051941;28;20465;-72
2023/02/17 05:40:55;;;;;;;22.80;4.20;;;;;;;8.59;51.74;97003.78;5051581;28;20417;-72
2023/02/17 05:43:21;;;;;;;28.75;5.13;;;;;;;8.59;51.99;97009.22;5051304;28;20047;-72
2023/02/17 05:45:48;;;;;;;19.02;4.15;;;;;;;8.56;52.05;97008.97;5052368;28;20041;-72
2023/02/17 05:48:15;;;;;;;27.48;4.53;;;;;;;8.56;51.88;97004.38;5052346;28;20045;-72
2023/02/17 05:50:41;;;;;;;29.15;5.25;;;;;;;8.59;52.19;97001.06;5053900;28;20056;-72
2023/02/17 05:53:09;;;;;;;26.65;4.40;;;;;;;8.55;52.22;96997.31;5052702;28;20052;-73
2023/02/17 05:55:35;;;;;;;31.77;4.55;;;;;;;8.52;52.61;97006.03;5053832;28;20049;-72
2023/02/17 05:58:02;;;;;;;25.95;4.55;;;;;;;8.48;52.70;97005.00;5051988;28;20052;-73
2023/02/17 06:00:29;;;;;;;24.65;4.72;;;;;;;8.45;53.57;97002.03;5052058;28;20037;-72
2023/02/17 06:02:56;;;;;;;14.50;3.50;;;;;;;8.47;53.45;97002.59;5052458;28;20535;-72
2023/02/17 06:05:22;;;;;;;25.90;4.72;;;;;;;8.44;53.48;97003.94;5051506;28;20053;-72
2023/02/17 06:07:49;;;;;;;22.85;4.78;;;;;;;8.42;54.09;96997.22;5051800;28;20052;-71
2023/02/17 06:10:17;;;;;;;26.17;4.80;;;;;;;8.40;54.05;97008.34;5050879;28;20127;-72
2023/02/17 06:12:43;;;;;;;46.08;6.53;;;;;;;8.38;54.06;97018.69;5050895;28;20053;-72
2023/02/17 06:15:10;;;;;;;24.58;4.70;;;;;;;8.47;53.88;97013.44;5050834;28;20041;-72
2023/02/17 06:17:36;;;;;;;29.33;4.65;;;;;;;8.50;54.35;97013.66;5051255;28;20049;-72
2023/02/17 06:20:04;;;;;;;34.38;5.18;;;;;;;8.51;54.19;97011.75;5050336;28;20045;-73
2023/02/17 06:22:30;;;;;;;28.08;5.15;;;;;;;8.48;54.69;97017.75;5050611;28;20048;-70
2023/02/17 06:24:57;;;;;;;19.88;4.28;;;;;;;8.43;55.25;97015.09;5051317;28;20500;-71
2023/02/17 06:27:25;;;;;;;30.30;4.90;;;;;;;8.44;55.52;97017.53;5050448;28;20053;-71
2023/02/17 06:29:51;;;;;;;35.10;5.30;;;;;;;8.52;55.47;97008.75;5050459;28;20048;-71
2023/02/17 06:32:18;;;;;;;24.80;4.65;;;;;;;8.51;55.91;97007.16;5050000;28;20592;-71
2023/02/17 06:34:44;;;;;;;21.75;4.10;;;;;;;8.51;56.38;97020.72;5050470;28;20045;-71
2023/02/17 06:37:11;;;;;;;24.88;5.15;;;;;;;8.48;56.64;97018.56;5050302;28;20045;-71
2023/02/17 06:39:37;;;;;;;28.88;5.40;;;;;;;8.50;57.13;97021.00;5050809;28;20053;-71
2023/02/17 06:42:04;;;;;;;25.52;4.72;;;;;;;8.59;57.22;97020.06;5048884;28;20048;-72
2023/02/17 06:44:32;;;;;;;49.42;6.70;;;;;;;8.68;57.94;97027.59;5046960;28;20081;-72
2023/02/17 06:46:58;;;;;;;35.78;5.50;;;;;;;8.74;58.32;97012.84;5047253;28;20053;-71
2023/02/17 06:49:25;;;;;;;40.95;6.13;;;;;;;8.84;58.79;97010.03;5046836;28;20052;-71
2023/02/17 06:51:51;;;;;;;46.40;6.38;;;;;;;8.82;59.26;97010.31;5045447;28;20045;-72
2023/02/17 06:54:18;;;;;;;56.33;7.50;;;;;;;8.85;60.44;97006.19;5044787;28;20095;-72
2023/02/17 06:56:45;;;;;;;36.75;5.57;;;;;;;8.92;61.00;97001.22;5045781;28;20041;-73
2023/02/17 06:59:11;;;;;;;41.80;6.03;;;;;;;9.03;61.00;97007.31;5045755;28;20057;-72
2023/02/17 07:01:39;;;;;;;32.55;5.43;;;;;;;9.02;61.44;97001.06;5046583;28;20056;-73
2023/02/17 07:04:06;;;;;;;20.75;4.07;;;;;;;9.05;61.90;97010.56;5044641;28;20084;-74
2023/02/17 07:06:32;;;;;;;42.50;6.25;;;;;;;8.99;62.21;97001.69;5046304;28;20047;-72
2023/02/17 07:09:01;;;;;;;32.85;4.90;;;;;;;9.03;62.33;97002.72;5046725;28;20049;-72
2023/02/17 07:11:30;;;;;;;33.13;5.50;;;;;;;8.97;62.22;97003.84;5046685;28;20052;-71
2023/02/17 07:13:57;;;;;;;37.15;5.70;;;;;;;9.02;62.18;97006.50;5046335;28;20128;-72
2023/02/17 07:16:23;;;;;;;34.28;5.28;;;;;;;8.95;62.65;97006.06;5046458;28;20056;-72
2023/02/17 07:18:51;;;;;;;20.25;3.95;;;;;;;8.94;62.53;97011.81;5047151;28;20106;-72
2023/02/17 07:21:18;;;;;;;36.38;5.57;;;;;;;8.95;62.51;97006.06;5044038;28;20063;-73
2023/02/17 07:23:44;;;;;;;42.90;6.55;;;;;;;8.99;61.61;97007.13;5044972;28;20064;-72
2023/02/17 07:26:11;;;;;;;37.88;5.65;;;;;;;9.00;61.62;97011.44;5046091;28;20048;-72
2023/02/17 07:28:39;;;;;;;35.83;5.00;;;;;;;9.03;61.43;97013.59;5046451;28;20679;-72
2023/02/17 07:31:06;;;;;;;39.90;5.15;;;;;;;9.06;61.26;97018.41;5045768;28;20049;-73
2023/02/17 07:33:33;;;;;;;32.20;5.18;;;;;;;9.09;61.31;97015.13;5045110;28;20127;-72
2023/02/17 07:36:01;;;;;;;42.25;5.60;;;;;;;9.11;60.78;97020.25;5046306;28;20056;-72
2023/02/17 07:38:27;;;;;;;46.42;6.10;;;;;;;9.15;60.71;97013.16;5046205;28;20049;-72
2023/02/17 07:40:54;;;;;;;31.27;4.97;;;;;;;9.19;61.20;97027.78;5045956;28;20057;-72
2023/02/17 07:43:20;;;;;;;37.65;5.68;;;;;;;9.27;60.43;97023.59;5045952;28;20060;-74
2023/02/17 07:45:47;;;;;;;32.00;4.50;;;;;;;9.30;60.52;97017.56;5047810;28;20534;-72
2023/02/17 07:48:13;;;;;;;36.63;5.00;;;;;;;9.36;60.96;97019.09;5046220;28;20675;-72
2023/02/17 07:50:40;;;;;;;37.08;5.60;;;;;;;9.46;60.34;97021.69;5046049;28;20047;-72
2023/02/17 07:53:07;;;;;;;28.63;4.45;;;;;;;9.46;60.70;97013.53;5045368;28;20041;-72
2023/02/17 07:55:34;;;;;;;42.58;5.72;;;;;;;9.50;60.04;97028.16;5046110;28;20467;-72
2023/02/17 07:58:00;;;;;;;34.10;5.05;;;;;;;9.47;60.49;97017.84;5045471;28;20508;-72
2023/02/17 08:00:27;;;;;;;31.95;4.57;;;;;;;9.49;60.01;97023.78;5045711;28;20743;-72
2023/02/17 08:02:53;;;;;;;30.50;4.82;;;;;;;9.54;59.98;97031.88;5045956;28;20053;-73
2023/02/17 08:05:20;;;;;;;46.97;5.93;;;;;;;9.56;59.94;97029.69;5045343;28;20072;-72
2023/02/17 08:07:46;;;;;;;29.83;4.68;;;;;;;9.59;60.34;97031.81;5046192;28;20048;-72
2023/02/17 08:15:42;;;;;;;25.27;4.93;;;;;;;9.65;60.88;97029.81;5045956;28;20068;-72
2023/02/17 08:18:09;;;;;;;33.03;5.03;;;;;;;9.71;60.60;97038.69;5045184;28;20053;-72
2023/02/17 08:20:36;;;;;;;24.90;4.68;;;;;;;9.77;59.96;97026.66;5046078;28;20053;-72
2023/02/17 08:23:03;;;;;;;35.28;5.45;;;;;;;9.87;59.82;97042.81;5044429;28;20052;-73
2023/02/17 08:25:32;;;;;;;41.33;9.07;;;;;;;9.91;60.33;97035.66;5045347;28;20116;-72
2023/02/17 08:27:59;;;;;;;21.33;3.85;;;;;;;9.93;60.14;97030.75;5045941;28;20131;-72
2023/02/17 08:30:25;;;;;;;30.88;5.35;;;;;;;9.90;60.39;97025.88;5045677;28;20045;-73
2023/02/17 08:32:52;;;;;;;31.83;5.25;;;;;;;9.91;60.10;97032.94;5045242;28;20055;-72
2023/02/17 08:35:21;;;;;;;33.33;5.50;;;;;;;9.96;60.49;97032.84;5045321;28;20068;-72
2023/02/17 08:37:47;;;;;;;29.35;5.28;;;;;;;10.11;60.32;97032.59;5045768;28;20049;-73
2023/02/17 08:40:14;;;;;;;28.90;5.18;;;;;;;10.23;60.12;97034.03;5045418;28;20648;-73
2023/02/17 08:42:42;;;;;;;39.22;6.35;;;;;;;10.29;60.26;97043.78;5045110;28;20547;-71
2023/02/17 08:45:08;;;;;;;31.23;5.25;;;;;;;10.38;59.98;97028.34;5047394;28;20463;-73
2023/02/17 08:47:36;;;;;;;27.63;5.13;;;;;;;10.29;59.61;97027.47;5049509;28;20052;-73
2023/02/17 08:50:03;;;;;;;27.77;4.97;;;;;;;10.28;59.77;97037.50;5049172;28;20582;-72
2023/02/17 08:52:30;;;;;;;39.75;6.45;;;;;;;10.27;60.56;97038.63;5048893;28;20132;-73
2023/02/17 08:54:57;;;;;;;22.98;4.20;;;;;;;10.21;61.06;97037.06;5049355;28;20924;-73
2023/02/17 08:57:23;;;;;;;34.33;5.60;;;;;;;10.18;61.48;97043.13;5048629;28;20467;-74
2023/02/17 08:59:52;;;;;;;29.40;4.68;;;;;;;10.17;62.20;97046.94;5049090;28;20051;-72
2023/02/17 09:02:18;;;;;;;35.00;4.90;;;;;;;10.15;61.83;97039.06;5048109;28;20057;-72
2023/02/17 09:04:45;;;;;;;35.78;5.45;;;;;;;10.12;62.01;97045.09;5049030;28;20045;-73
2023/02/17 09:07:14;;;;;;;40.10;5.43;;;;;;;10.16;62.06;97040.69;5048741;28;20045;-73
2023/02/17 09:09:42;;;;;;;37.55;5.75;;;;;;;10.15;61.63;97039.06;5048011;28;20122;-73
2023/02/17 09:12:09;;;;;;;27.15;4.30;;;;;;;10.17;62.30;97050.47;5048134;28;20152;-73
2023/02/17 09:14:35;;;;;;;34.83;5.18;;;;;;;10.18;61.56;97043.94;5048816;28;20053;-73
2023/02/17 09:17:04;;;;;;;30.65;4.93;;;;;;;10.16;61.43;97057.00;5047763;28;20056;-74
2023/02/17 09:19:30;;;;;;;54.70;6.82;;;;;;;10.11;61.60;97059.81;5048210;28;20119;-73
2023/02/17 09:21:57;;;;;;;39.78;5.63;;;;;;;10.06;62.49;97059.09;5048732;28;20056;-74
2023/02/17 09:24:24;;;;;;;41.58;6.07;;;;;;;9.93;63.34;97074.28;5048120;28;20057;-74
2023/02/17 09:26:50;;;;;;;27.73;4.22;;;;;;;9.89;64.49;97062.38;5049057;28;20044;-73
2023/02/17 09:29:17;;;;;;;41.22;5.70;;;;;;;9.87;65.25;97059.16;5047850;28;20044;-73
2023/02/17 09:31:44;;;;;;;43.33;6.30;;;;;;;9.80;65.22;97051.34;5048203;28;20045;-73
2023/02/17 09:34:12;;;;;;;39.95;5.38;;;;;;;9.88;65.85;97055.31;5047949;28;20053;-73
2023/02/17 09:36:40;;;;;;;42.03;6.05;;;;;;;9.87;66.77;97064.59;5048867;28;20053;-73
2023/02/17 09:39:08;;;;;;;40.75;5.65;;;;;;;9.86;66.13;97062.94;5047710;28;20049;-74
2023/02/17 09:41:39;;;;;;;28.75;5.10;;;;;;;9.91;66.22;97062.88;5047589;28;20107;-73
2023/02/17 09:44:13;;;;;;;43.75;6.30;;;;;;;9.98;65.61;97074.19;5047412;28;20102;-73
2023/02/17 09:46:43;;;;;;;35.50;5.90;;;;;;;10.02;65.64;97067.03;5048484;28;20052;-73
2023/02/17 09:49:16;;;;;;;27.38;4.53;;;;;;;10.07;65.38;97068.88;5047612;28;20057;-72
2023/02/17 09:51:45;;;;;;;37.67;5.55;;;;;;;10.12;64.87;97072.31;5048222;28;20619;-72
2023/02/17 09:54:18;;;;;;;33.97;5.43;;;;;;;10.13;64.61;97060.34;5047425;28;20045;-73
2023/02/17 09:56:48;;;;;;;36.08;5.47;;;;;;;10.14;65.20;97063.88;5047434;28;20044;-71
2023/02/17 09:59:19;;;;;;;30.85;5.05;;;;;;;10.15;64.99;97066.28;5047985;28;20436;-73
2023/02/17 10:01:48;;;;;;;42.97;6.20;;;;;;;10.25;64.83;97053.66;5047489;28;20045;-74
2023/02/17 10:04:21;;;;;;;35.95;5.35;;;;;;;10.32;64.52;97043.19;5047270;28;20044;-72
2023/02/17 10:06:51;;;;;;;40.33;5.68;;;;;;;10.63;63.25;97043.44;5047727;28;20048;-71
2023/02/17 10:09:23;;;;;;;40.72;6.03;;;;;;;10.94;62.01;97032.75;5047137;28;20052;-72
2023/02/17 10:11:55;;;;;;;38.95;5.65;;;;;;;11.31;60.68;97033.59;5047682;28;20262;-73
2023/02/17 10:14:28;;;;;;;32.43;4.77;;;;;;;11.72;59.20;97039.75;5046245;28;20056;-73
2023/02/17 10:17:02;;;;;;;44.10;5.53;;;;;;;12.11;58.74;97038.34;5047372;28;20048;-73
2023/02/17 10:19:34;;;;;;;29.08;5.25;;;;;;;12.06;58.07;97049.38;5047650;28;20048;-72
2023/02/17 10:22:08;;;;;;;35.72;5.05;;;;;;;12.16;58.12;97043.66;5027331;28;20053;-72
2023/02/17 10:24:35;;;;;;;31.35;5.10;;;;;;;12.22;57.49;97034.22;5027605;28;20061;-73
2023/02/17 10:27:28;;;;;;;36.97;4.97;;;;;;;12.33;57.45;97044.91;5027585;28;20505;-72
2023/02/17 10:30:09;;;;;;;37.47;5.80;;;;;;;12.28;57.84;97038.44;5022387;28;20046;-72
2023/02/17 10:32:46;;;;;;;39.08;5.72;;;;;;;12.52;57.00;97032.59;5046715;28;20045;-74
2023/02/17 10:35:17;;;;;;;33.35;5.35;;;;;;;12.35;56.92;97034.44;5046519;28;20084;-73
2023/02/17 10:37:48;;;;;;;47.15;6.18;;;;;;;11.99;58.34;97038.88;5043660;28;20048;-73
2023/02/17 10:40:19;;;;;;;28.70;4.80;;;;;;;11.85;58.86;97043.59;5046618;28;20069;-72
2023/02/17 10:42:48;;;;;;;48.83;6.45;;;;;;;12.15;58.77;97039.31;5047160;28;20099;-72
2023/02/17 10:45:30;;;;;;;29.95;5.47;;;;;;;12.73;57.45;97032.88;5030855;28;20049;-72
2023/02/17 10:48:01;;;;;;;24.55;4.15;;;;;;;13.15;56.43;97025.13;5032248;28;20048;-73
2023/02/17 10:50:30;;;;;;;31.58;4.78;;;;;;;13.09;55.24;97029.13;5047225;28;20052;-73
2023/02/17 10:52:57;;;;;;;28.77;4.72;;;;;;;13.07;55.19;97026.72;5047964;28;20475;-72
2023/02/17 10:55:33;;;;;;;28.08;4.30;;;;;;;12.69;55.62;97031.91;5048059;28;20126;-72
2023/02/17 10:58:05;;;;;;;30.67;4.30;;;;;;;12.48;56.68;97036.31;5048272;28;20056;-72
2023/02/17 11:00:32;;;;;;;33.72;5.00;;;;;;;12.58;57.22;97025.13;5046283;28;20381;-72
2023/02/17 11:02:59;;;;;;;30.30;4.82;;;;;;;12.49;56.74;97021.53;5047085;28;20059;-73
2023/02/17 11:05:29;;;;;;;26.15;4.03;;;;;;;12.43;57.40;97022.78;5047186;28;20055;-73
2023/02/17 11:07:59;;;;;;;29.92;4.32;;;;;;;12.48;57.44;97022.66;5047213;28;20044;-72
2023/02/17 11:10:29;;;;;;;28.65;4.28;;;;;;;12.34;57.91;97013.72;5047295;28;20041;-72
2023/02/17 11:12:57;;;;;;;23.45;4.10;;;;;;;12.36;58.35;97019.69;5047198;28;20056;-72
2023/02/17 11:15:27;;;;;;;33.53;4.72;;;;;;;12.53;57.01;97025.25;5047352;28;20127;-74
2023/02/17 11:17:55;;;;;;;32.80;4.78;;;;;;;12.89;56.81;97021.50;5047547;28;20128;-72
2023/02/17 11:20:45;;;;;;;25.17;4.43;;;;;;;13.07;55.15;97015.00;5047010;28;20072;-72
2023/02/17 11:23:23;;;;;;;30.63;4.25;;;;;;;13.12;55.74;97003.09;5028582;28;20044;-72
2023/02/17 11:26:02;;;;;;;29.85;4.18;;;;;;;13.05;55.42;97006.31;5049859;28;20413;-72
2023/02/17 11:28:29;;;;;;;29.27;4.43;;;;;;;13.00;56.12;97010.00;5047990;28;20041;-71
2023/02/17 11:30:57;;;;;;;31.25;4.38;;;;;;;13.17;54.73;96992.81;5048394;28;20057;-73
2023/02/17 11:33:30;;;;;;;44.35;5.47;;;;;;;13.34;54.61;96999.47;5046617;28;20049;-72
2023/02/17 11:35:58;;;;;;;32.47;4.57;;;;;;;13.37;54.86;97002.38;5044303;28;20052;-72
2023/02/17 11:38:27;;;;;;;33.70;4.63;;;;;;;13.38;53.87;96997.72;5019358;28;20053;-73
2023/02/17 11:40:59;;;;;;;33.55;5.07;;;;;;;13.22;54.41;96991.91;5032461;28;20088;-75
2023/02/17 11:43:27;;;;;;;28.90;4.80;;;;;;;12.91;54.54;97000.16;5050492;28;20052;-72
2023/02/17 11:46:14;;;;;;;29.90;4.30;;;;;;;12.86;55.48;96987.44;5050445;28;20139;-72